createdAt,value
2023-04-22T00:00:36.052Z,23.8035
2023-04-22T00:01:37.723Z,23.8523
2023-04-22T00:02:39.433Z,23.8558
2023-04-22T00:03:41.243Z,23.8273
2023-04-22T00:04:43.180Z,23.8192
2023-04-22T00:05:44.349Z,23.8000
2023-04-22T00:06:45.906Z,23.7646
2023-04-22T00:07:47.590Z,23.7273
2023-04-22T00:08:49.218Z,23.6112
2023-04-22T00:09:50.940Z,23.5681
2023-04-22T00:10:52.488Z,23.6312
2023-04-22T00:11:54.195Z,23.7304
2023-04-22T00:12:55.817Z,23.7877
2023-04-22T00:13:57.562Z,23.8119
2023-04-22T00:14:59.149Z,23.8177
2023-04-22T00:16:00.816Z,23.8096
2023-04-22T00:17:02.416Z,23.8073
2023-04-22T00:18:04.157Z,23.7742
2023-04-22T00:19:05.753Z,23.6658
2023-04-22T00:20:07.439Z,23.5785
2023-04-22T00:21:08.980Z,23.5850
2023-04-22T00:22:10.667Z,23.5546
2023-04-22T00:23:12.279Z,23.5888
2023-04-22T00:24:14.629Z,23.6885
2023-04-22T00:25:15.639Z,23.7646
2023-04-22T00:26:17.298Z,23.8054
2023-04-22T00:27:18.981Z,23.8238
2023-04-22T00:28:20.559Z,23.8296
2023-04-22T00:29:22.306Z,23.8235
2023-04-22T00:30:23.923Z,23.8104
2023-04-22T00:31:25.535Z,23.7685
2023-04-22T00:32:27.210Z,23.7404
2023-04-22T00:33:28.758Z,23.6938
2023-04-22T00:34:30.502Z,23.5927
2023-04-22T00:35:32.101Z,23.5781
2023-04-22T00:36:33.761Z,23.6281
2023-04-22T00:37:35.434Z,23.7404
2023-04-22T00:38:37.044Z,23.7827
2023-04-22T00:39:39.142Z,23.8092
2023-04-22T00:40:40.380Z,23.8412
2023-04-22T00:41:41.930Z,23.8312
2023-04-22T00:42:43.667Z,23.8054
2023-04-22T00:43:45.249Z,23.7619
2023-04-22T00:44:46.982Z,23.6800
2023-04-22T00:45:48.592Z,23.6058
2023-04-22T00:46:50.257Z,23.5815
2023-04-22T00:47:51.938Z,23.6250
2023-04-22T00:48:53.525Z,23.7212
2023-04-22T00:49:55.247Z,23.7785
2023-04-22T00:50:56.888Z,23.8000
2023-04-22T00:51:58.440Z,23.8169
2023-04-22T00:53:00.117Z,23.8204
2023-04-22T00:54:01.741Z,23.8065
2023-04-22T00:55:04.125Z,23.8004
2023-04-22T00:56:05.074Z,23.7785
2023-04-22T00:57:06.754Z,23.7042
2023-04-22T00:58:08.392Z,23.6023
2023-04-22T00:59:10.048Z,23.6019
2023-04-22T01:00:11.655Z,23.6054
2023-04-22T01:01:14.189Z,23.6962
2023-04-22T01:02:15.003Z,23.7581
2023-04-22T01:03:16.719Z,23.7862
2023-04-22T01:04:18.335Z,23.8308
2023-04-22T01:05:19.960Z,23.8519
2023-04-22T01:06:21.535Z,23.8446
2023-04-22T01:07:23.250Z,23.8281
2023-04-22T01:08:24.860Z,23.8300
2023-04-22T01:09:26.481Z,23.8212
2023-04-22T01:10:28.094Z,23.7658
2023-04-22T01:11:30.606Z,23.6562
2023-04-22T01:12:31.427Z,23.5427
2023-04-22T01:13:33.118Z,23.5181
2023-04-22T01:14:34.669Z,23.5231
2023-04-22T01:15:36.407Z,23.5738
2023-04-22T01:16:38.055Z,23.6888
2023-04-22T01:17:39.772Z,23.7492
2023-04-22T01:18:41.295Z,23.7588
2023-04-22T01:19:43.644Z,23.7696
2023-04-22T01:20:44.535Z,23.7562
2023-04-22T01:21:46.240Z,23.6681
2023-04-22T01:22:47.839Z,23.6023
2023-04-22T01:23:49.618Z,23.5423
2023-04-22T01:24:51.225Z,23.4792
2023-04-22T01:25:52.820Z,23.4708
2023-04-22T01:26:54.429Z,23.5431
2023-04-22T01:27:56.197Z,23.6573
2023-04-22T01:28:57.800Z,23.7492
2023-04-22T01:29:59.509Z,23.7831
2023-04-22T01:31:01.113Z,23.7854
2023-04-22T01:32:02.755Z,23.7542
2023-04-22T01:33:04.443Z,23.7362
2023-04-22T01:34:06.021Z,23.7092
2023-04-22T01:35:08.076Z,23.6273
2023-04-22T01:36:10.967Z,23.5219
2023-04-22T01:37:10.933Z,23.4392
2023-04-22T01:38:12.618Z,23.4781
2023-04-22T01:39:14.250Z,23.5538
2023-04-22T01:40:15.979Z,23.6723
2023-04-22T01:41:17.574Z,23.7554
2023-04-22T01:42:19.207Z,23.7915
2023-04-22T01:43:20.808Z,23.8212
2023-04-22T01:44:22.507Z,23.8112
2023-04-22T01:45:24.578Z,23.7938
2023-04-22T01:46:26.228Z,23.7838
2023-04-22T01:47:27.480Z,23.7662
2023-04-22T01:48:29.106Z,23.6662
2023-04-22T01:49:30.713Z,23.5612
2023-04-22T01:50:32.433Z,23.5185
2023-04-22T01:51:34.111Z,23.4931
2023-04-22T01:52:35.662Z,23.5004
2023-04-22T01:53:37.338Z,23.5358
2023-04-22T01:54:38.957Z,23.6392
2023-04-22T01:55:40.664Z,23.7331
2023-04-22T01:56:42.305Z,23.7881
2023-04-22T01:57:44.011Z,23.8292
2023-04-22T01:58:45.549Z,23.8831
2023-04-22T01:59:47.281Z,23.9423
2023-04-22T02:00:48.888Z,23.9792
2023-04-22T02:01:50.620Z,24.0065
2023-04-22T02:02:52.238Z,24.0062
2023-04-22T02:03:53.843Z,23.9992
2023-04-22T02:04:55.453Z,24.0123
2023-04-22T02:05:57.611Z,23.9635
2023-04-22T02:06:59.003Z,23.9404
2023-04-22T02:08:00.389Z,23.8846
2023-04-22T02:09:01.959Z,23.8523
2023-04-22T02:10:03.643Z,23.8265
2023-04-22T02:11:05.269Z,23.7615
2023-04-22T02:12:06.980Z,23.6854
2023-04-22T02:13:08.601Z,23.6350
2023-04-22T02:14:10.219Z,23.6477
2023-04-22T02:15:11.855Z,23.7196
2023-04-22T02:16:13.625Z,23.7888
2023-04-22T02:17:15.193Z,23.8538
2023-04-22T02:18:16.878Z,23.8996
2023-04-22T02:19:18.457Z,23.9742
2023-04-22T02:20:20.198Z,24.0200
2023-04-22T02:21:21.730Z,24.0142
2023-04-22T02:22:23.571Z,23.9519
2023-04-22T02:23:25.214Z,23.9262
2023-04-22T02:24:26.766Z,23.8635
2023-04-22T02:25:28.461Z,23.8135
2023-04-22T02:26:30.054Z,23.7708
2023-04-22T02:27:31.785Z,23.7050
2023-04-22T02:28:33.519Z,23.6673
2023-04-22T02:29:35.061Z,23.6642
2023-04-22T02:30:36.648Z,23.7242
2023-04-22T02:31:38.417Z,23.7715
2023-04-22T02:32:40.070Z,23.7938
2023-04-22T02:33:41.692Z,23.8473
2023-04-22T02:34:43.540Z,23.8727
2023-04-22T02:35:44.949Z,23.9142
2023-04-22T02:36:46.571Z,23.8912
2023-04-22T02:37:48.219Z,23.8681
2023-04-22T02:38:50.045Z,23.8335
2023-04-22T02:39:51.546Z,23.8169
2023-04-22T02:40:53.149Z,23.7696
2023-04-22T02:41:54.816Z,23.6885
2023-04-22T02:42:56.449Z,23.6046
2023-04-22T02:43:58.166Z,23.5204
2023-04-22T02:45:00.112Z,23.5719
2023-04-22T02:46:01.453Z,23.6681
2023-04-22T02:47:04.156Z,23.7550
2023-04-22T02:48:04.834Z,23.7962
2023-04-22T02:49:06.363Z,23.8381
2023-04-22T02:50:08.083Z,23.8935
2023-04-22T02:51:09.631Z,23.9223
2023-04-22T02:52:11.335Z,23.8996
2023-04-22T02:53:15.609Z,23.8554
2023-04-22T02:54:16.601Z,23.8150
2023-04-22T02:55:16.312Z,23.7977
2023-04-22T02:56:17.959Z,23.7219
2023-04-22T02:57:19.543Z,23.6600
2023-04-22T02:58:21.237Z,23.5923
2023-04-22T02:59:22.900Z,23.6050
2023-04-22T03:00:24.641Z,23.6442
2023-04-22T03:01:26.336Z,23.7338
2023-04-22T03:02:28.701Z,23.7842
2023-04-22T03:03:29.583Z,23.8254
2023-04-22T03:04:31.172Z,23.9004
2023-04-22T03:05:32.789Z,23.9704
2023-04-22T03:06:34.475Z,24.0142
2023-04-22T03:07:37.126Z,23.9965
2023-04-22T03:08:37.757Z,23.9396
2023-04-22T03:09:39.756Z,23.9004
2023-04-22T03:10:41.082Z,23.8015
2023-04-22T03:11:43.543Z,23.7631
2023-04-22T03:12:44.360Z,23.7165
2023-04-22T03:13:46.500Z,23.6077
2023-04-22T03:14:47.645Z,23.5554
2023-04-22T03:15:49.307Z,23.5850
2023-04-22T03:16:51.016Z,23.6662
2023-04-22T03:17:52.659Z,23.7504
2023-04-22T03:18:54.548Z,23.7946
2023-04-22T03:19:55.857Z,23.8419
2023-04-22T03:20:57.573Z,23.9058
2023-04-22T03:21:59.230Z,23.9781
2023-04-22T03:23:00.882Z,23.9758
2023-04-22T03:24:02.462Z,23.9308
2023-04-22T03:25:04.118Z,23.8688
2023-04-22T03:26:05.752Z,23.8335
2023-04-22T03:27:07.487Z,23.7854
2023-04-22T03:28:09.110Z,23.7350
2023-04-22T03:29:10.743Z,23.6415
2023-04-22T03:30:12.422Z,23.5681
2023-04-22T03:31:14.027Z,23.5496
2023-04-22T03:32:15.809Z,23.6108
2023-04-22T03:33:18.106Z,23.7219
2023-04-22T03:34:18.930Z,23.7777
2023-04-22T03:35:20.645Z,23.8142
2023-04-22T03:36:22.236Z,23.8792
2023-04-22T03:37:23.970Z,23.9562
2023-04-22T03:38:25.613Z,24.0181
2023-04-22T03:39:27.234Z,24.0581
2023-04-22T03:40:28.828Z,24.0812
2023-04-22T03:41:30.537Z,24.0512
2023-04-22T03:42:32.214Z,23.9973
2023-04-22T03:43:33.842Z,23.9285
2023-04-22T03:44:35.438Z,23.8246
2023-04-22T03:45:37.189Z,23.7977
2023-04-22T03:46:38.698Z,23.7435
2023-04-22T03:47:40.455Z,23.6377
2023-04-22T03:48:42.054Z,23.5573
2023-04-22T03:49:43.763Z,23.5715
2023-04-22T03:50:45.346Z,23.6042
2023-04-22T03:51:47.035Z,23.6973
2023-04-22T03:52:48.642Z,23.7750
2023-04-22T03:53:50.337Z,23.8308
2023-04-22T03:54:53.588Z,23.9577
2023-04-22T03:55:53.640Z,24.0604
2023-04-22T03:56:55.200Z,24.0988
2023-04-22T03:57:56.887Z,24.0881
2023-04-22T03:58:58.581Z,24.0700
2023-04-22T04:00:00.559Z,24.1481
2023-04-22T04:01:01.825Z,24.1873
2023-04-22T04:02:03.585Z,24.1335
2023-04-22T04:03:05.304Z,24.2035
2023-04-22T04:04:06.961Z,24.2996
2023-04-22T04:05:08.660Z,24.4315
2023-04-22T04:06:10.052Z,24.5715
2023-04-22T04:07:11.775Z,24.7308
2023-04-22T04:08:13.390Z,24.8469
2023-04-22T04:09:15.007Z,24.9923
2023-04-22T04:10:17.088Z,25.1081
2023-04-22T04:11:18.366Z,25.2015
2023-04-22T04:12:19.920Z,25.2558
2023-04-22T04:13:21.601Z,25.2865
2023-04-22T04:14:23.372Z,25.3981
2023-04-22T04:15:25.105Z,25.5362
2023-04-22T04:16:27.823Z,25.7035
2023-04-22T04:17:28.377Z,25.8212
2023-04-22T04:18:29.975Z,25.9800
2023-04-22T04:19:31.681Z,26.1481
2023-04-22T04:20:34.261Z,26.2831
2023-04-22T04:21:34.992Z,26.4058
2023-04-22T04:22:36.569Z,26.5254
2023-04-22T04:23:38.214Z,26.6627
2023-04-22T04:24:40.042Z,26.7573
2023-04-22T04:25:41.724Z,26.7658
2023-04-22T04:26:43.284Z,26.7381
2023-04-22T04:27:44.876Z,26.6892
2023-04-22T04:28:46.528Z,26.6473
2023-04-22T04:29:48.146Z,26.7192
2023-04-22T04:30:49.899Z,26.8262
2023-04-22T04:31:51.483Z,27.0031
2023-04-22T04:32:53.055Z,27.1254
2023-04-22T04:33:54.788Z,27.2188
2023-04-22T04:34:56.334Z,27.2538
2023-04-22T04:35:58.115Z,27.2581
2023-04-22T04:36:59.757Z,27.2615
2023-04-22T04:38:01.422Z,27.2296
2023-04-22T04:39:02.922Z,27.2165
2023-04-22T04:40:04.776Z,27.1935
2023-04-22T04:41:06.239Z,27.1823
2023-04-22T04:42:07.958Z,27.1800
2023-04-22T04:43:09.636Z,27.1704
2023-04-22T04:44:12.267Z,27.2012
2023-04-22T04:45:12.790Z,27.2777
2023-04-22T04:46:14.617Z,27.3715
2023-04-22T04:47:16.166Z,27.3946
2023-04-22T04:48:17.931Z,27.4088
2023-04-22T04:49:19.468Z,27.4362
2023-04-22T04:50:21.164Z,27.4254
2023-04-22T04:51:22.725Z,27.4142
2023-04-22T04:52:24.477Z,27.3850
2023-04-22T04:53:26.044Z,27.3523
2023-04-22T04:54:27.745Z,27.3488
2023-04-22T04:55:29.313Z,27.3342
2023-04-22T04:56:30.995Z,27.3031
2023-04-22T04:57:32.692Z,27.2858
2023-04-22T04:58:35.333Z,27.2727
2023-04-22T04:59:35.928Z,27.2742
2023-04-22T05:00:37.676Z,27.2850
2023-04-22T05:01:39.358Z,27.3565
2023-04-22T05:02:41.124Z,27.4127
2023-04-22T05:03:42.902Z,27.4846
2023-04-22T05:04:45.256Z,27.5500
2023-04-22T05:05:45.838Z,27.5669
2023-04-22T05:06:48.307Z,27.5569
2023-04-22T05:07:49.235Z,27.5469
2023-04-22T05:08:50.772Z,27.5154
2023-04-22T05:09:52.539Z,27.4938
2023-04-22T05:10:54.056Z,27.4723
2023-04-22T05:11:55.714Z,27.4342
2023-04-22T05:12:58.317Z,27.4346
2023-04-22T05:13:59.110Z,27.4485
2023-04-22T05:15:00.687Z,27.4904
2023-04-22T05:16:02.387Z,27.5096
2023-04-22T05:17:04.288Z,27.5031
2023-04-22T05:18:05.737Z,27.4873
2023-04-22T05:19:07.262Z,27.5042
2023-04-22T05:20:09.017Z,27.5131
2023-04-22T05:21:11.512Z,27.5123
2023-04-22T05:22:12.275Z,27.5523
2023-04-22T05:23:13.837Z,27.5708
2023-04-22T05:24:15.622Z,27.5588
2023-04-22T05:25:17.208Z,27.5531
2023-04-22T05:26:18.815Z,27.5785
2023-04-22T05:27:20.446Z,27.5935
2023-04-22T05:28:22.078Z,27.6550
2023-04-22T05:29:23.784Z,27.6469
2023-04-22T05:30:25.456Z,27.7077
2023-04-22T05:31:27.074Z,27.7262
2023-04-22T05:32:28.761Z,27.7669
2023-04-22T05:33:30.361Z,27.7977
2023-04-22T05:34:31.996Z,27.8358
2023-04-22T05:35:33.728Z,27.8573
2023-04-22T05:36:35.220Z,27.9069
2023-04-22T05:37:36.965Z,27.9527
2023-04-22T05:38:38.563Z,27.9850
2023-04-22T05:39:40.675Z,27.9992
2023-04-22T05:40:41.970Z,28.0177
2023-04-22T05:41:46.150Z,28.0288
2023-04-22T05:42:45.209Z,28.0485
2023-04-22T05:43:46.873Z,28.1019
2023-04-22T05:44:48.448Z,28.1458
2023-04-22T05:45:50.292Z,28.2146
2023-04-22T05:46:51.768Z,28.2608
2023-04-22T05:47:53.425Z,28.2785
2023-04-22T05:48:55.121Z,28.2877
2023-04-22T05:49:56.752Z,28.3108
2023-04-22T05:50:58.328Z,28.3312
2023-04-22T05:52:00.088Z,28.3754
2023-04-22T05:53:01.604Z,28.4335
2023-04-22T05:54:03.339Z,28.4565
2023-04-22T05:55:04.956Z,28.4719
2023-04-22T05:56:06.629Z,28.4888
2023-04-22T05:57:08.279Z,28.5208
2023-04-22T05:58:09.895Z,28.5423
2023-04-22T05:59:11.563Z,28.5835
2023-04-22T06:53:28.112Z,28.6173
2023-04-22T06:54:31.184Z,29.6579
2023-04-22T06:55:32.916Z,29.6254
2023-04-22T06:56:34.455Z,29.5885
2023-04-22T06:57:36.095Z,29.5450
2023-04-22T06:58:37.848Z,29.5238
2023-04-22T06:59:39.652Z,29.5062
2023-04-22T07:00:41.089Z,29.4958
2023-04-22T07:01:42.763Z,29.4662
2023-04-22T07:02:44.423Z,29.4523
2023-04-22T07:03:46.227Z,29.4123
2023-04-22T07:04:47.596Z,29.4023
2023-04-22T07:05:49.314Z,29.3823
2023-04-22T07:06:50.921Z,29.3631
2023-04-22T07:07:53.550Z,29.3596
2023-04-22T07:08:54.284Z,29.3573
2023-04-22T07:09:56.932Z,29.3469
2023-04-22T07:10:57.481Z,29.3485
2023-04-22T07:11:59.581Z,29.3404
2023-04-22T07:13:01.114Z,29.3346
2023-04-22T07:14:02.808Z,29.3415
2023-04-22T07:15:04.164Z,29.3312
2023-04-22T07:16:05.824Z,29.3265
2023-04-22T07:17:07.897Z,29.3458
2023-04-22T07:18:09.011Z,29.3519
2023-04-22T07:19:10.810Z,29.3631
2023-04-22T07:20:12.354Z,29.3750
2023-04-22T07:21:14.056Z,29.3773
2023-04-22T07:22:15.654Z,29.4035
2023-04-22T07:23:17.361Z,29.4181
2023-04-22T07:24:18.978Z,29.4215
2023-04-22T07:25:20.691Z,29.4458
2023-04-22T07:26:22.255Z,29.4585
2023-04-22T07:27:23.940Z,29.4631
2023-04-22T07:28:25.548Z,29.4631
2023-04-22T07:29:27.478Z,29.4831
2023-04-22T07:30:29.123Z,29.4919
2023-04-22T07:31:30.616Z,29.4896
2023-04-22T07:32:32.230Z,29.4904
2023-04-22T07:33:33.814Z,29.4908
2023-04-22T07:34:35.441Z,29.4877
2023-04-22T07:35:37.152Z,29.4823
2023-04-22T07:36:38.874Z,29.5119
2023-04-22T07:37:40.504Z,29.5319
2023-04-22T07:38:42.028Z,29.5408
2023-04-22T07:39:43.706Z,29.5315
2023-04-22T07:40:45.382Z,29.5485
2023-04-22T07:41:47.098Z,29.5304
2023-04-22T07:42:48.593Z,29.5362
2023-04-22T07:43:50.407Z,29.5481
2023-04-22T07:44:52.855Z,29.5765
2023-04-22T07:45:53.712Z,29.6081
2023-04-22T07:46:55.220Z,29.6119
2023-04-22T07:47:56.992Z,29.6304
2023-04-22T07:48:58.461Z,29.6423
2023-04-22T07:50:00.235Z,29.6527
2023-04-22T07:51:03.292Z,29.6650
2023-04-22T07:52:03.798Z,29.6988
2023-04-22T07:53:05.125Z,29.7108
2023-04-22T07:54:06.703Z,29.7127
2023-04-22T07:55:08.420Z,29.7142
2023-04-22T07:56:11.032Z,29.7377
2023-04-22T07:57:11.805Z,29.5438
2023-04-22T07:58:13.336Z,29.3392
2023-04-22T07:59:15.016Z,29.3669
2023-04-22T08:00:16.732Z,29.4300
2023-04-22T08:01:20.152Z,29.4954
2023-04-22T08:02:21.036Z,29.5615
2023-04-22T08:03:21.832Z,29.5877
2023-04-22T08:04:23.693Z,29.6146
2023-04-22T08:05:25.037Z,29.6450
2023-04-22T08:06:27.538Z,29.6754
2023-04-22T08:07:33.001Z,29.7065
2023-04-22T08:08:29.793Z,29.7254
2023-04-22T08:09:31.587Z,29.7527
2023-04-22T08:10:33.190Z,29.7619
2023-04-22T08:11:34.828Z,29.6819
2023-04-22T08:12:36.484Z,29.3642
2023-04-22T08:13:38.150Z,29.2204
2023-04-22T08:14:39.735Z,29.2669
2023-04-22T08:15:41.394Z,29.3292
2023-04-22T08:16:43.143Z,29.4308
2023-04-22T08:17:44.798Z,29.4965
2023-04-22T08:18:46.338Z,29.5523
2023-04-22T08:19:47.956Z,29.6277
2023-04-22T08:20:49.671Z,29.6862
2023-04-22T08:21:51.315Z,29.7227
2023-04-22T08:22:52.983Z,29.7615
2023-04-22T08:23:54.494Z,29.7588
2023-04-22T08:24:56.308Z,29.6373
2023-04-22T08:25:57.786Z,29.4269
2023-04-22T08:26:59.564Z,29.3519
2023-04-22T08:28:01.200Z,29.4438
2023-04-22T08:29:02.844Z,29.5312
2023-04-22T08:30:05.328Z,29.6146
2023-04-22T08:31:07.018Z,29.7054
2023-04-22T08:32:07.780Z,29.6919
2023-04-22T08:33:09.525Z,29.1996
2023-04-22T08:34:11.020Z,28.9915
2023-04-22T08:35:12.736Z,29.1308
2023-04-22T08:36:14.451Z,29.2773
2023-04-22T08:37:16.086Z,29.3723
2023-04-22T08:38:17.732Z,29.4708
2023-04-22T08:39:19.309Z,29.5623
2023-04-22T08:40:20.988Z,29.6319
2023-04-22T08:41:22.628Z,29.6988
2023-04-22T08:42:24.353Z,29.7281
2023-04-22T08:43:25.949Z,29.6646
2023-04-22T08:44:27.566Z,29.6262
2023-04-22T08:45:29.169Z,29.6435
2023-04-22T08:46:30.913Z,29.6154
2023-04-22T08:47:32.582Z,29.5712
2023-04-22T08:48:34.232Z,29.5765
2023-04-22T08:49:35.783Z,29.6546
2023-04-22T08:50:37.460Z,29.7119
2023-04-22T08:51:39.090Z,29.7519
2023-04-22T08:52:40.760Z,29.7792
2023-04-22T08:53:43.408Z,29.7915
2023-04-22T08:54:44.103Z,29.8108
2023-04-22T08:55:45.719Z,29.8023
2023-04-22T08:56:47.311Z,29.7738
2023-04-22T08:57:49.026Z,29.7500
2023-04-22T08:58:50.706Z,29.7242
2023-04-22T08:59:52.292Z,29.5554
2023-04-22T09:00:53.918Z,29.6038
2023-04-22T09:01:55.645Z,29.6919
2023-04-22T09:02:58.242Z,29.7492
2023-04-22T09:03:59.126Z,29.7892
2023-04-22T09:05:00.482Z,29.8031
2023-04-22T09:06:02.222Z,29.7985
2023-04-22T09:07:03.973Z,29.7519
2023-04-22T09:08:05.478Z,29.6196
2023-04-22T09:09:07.145Z,29.5731
2023-04-22T09:10:08.806Z,29.6108
2023-04-22T09:11:10.430Z,29.7119
2023-04-22T09:12:12.111Z,29.7742
2023-04-22T09:13:13.684Z,29.8012
2023-04-22T09:14:16.393Z,29.8092
2023-04-22T09:15:17.024Z,29.7792
2023-04-22T09:16:18.646Z,29.7208
2023-04-22T09:17:20.223Z,29.7135
2023-04-22T09:18:21.942Z,29.6654
2023-04-22T09:19:23.504Z,29.6527
2023-04-22T09:20:25.211Z,29.6631
2023-04-22T09:21:26.877Z,29.4612
2023-04-22T09:22:28.457Z,29.4162
2023-04-22T09:23:30.146Z,29.5004
2023-04-22T09:24:31.734Z,29.5862
2023-04-22T09:25:33.479Z,29.6908
2023-04-22T09:26:35.072Z,29.7588
2023-04-22T09:27:36.730Z,29.7923
2023-04-22T09:28:38.380Z,29.8292
2023-04-22T09:29:40.249Z,29.8915
2023-04-22T09:30:41.694Z,29.9315
2023-04-22T09:31:43.361Z,29.8535
2023-04-22T09:32:45.023Z,29.8619
2023-04-22T09:33:48.309Z,29.7796
2023-04-22T09:34:48.300Z,29.6669
2023-04-22T09:35:50.005Z,29.7108
2023-04-22T09:36:51.611Z,29.7692
2023-04-22T09:37:53.224Z,29.7608
2023-04-22T09:38:54.865Z,29.7685
2023-04-22T09:39:56.550Z,29.7788
2023-04-22T09:40:58.225Z,29.7631
2023-04-22T09:41:59.874Z,29.6804
2023-04-22T09:43:01.502Z,29.6700
2023-04-22T09:44:03.167Z,29.7088
2023-04-22T09:45:04.806Z,29.7658
2023-04-22T09:46:06.563Z,29.8204
2023-04-22T09:47:08.125Z,29.8688
2023-04-22T09:48:09.718Z,29.8488
2023-04-22T09:49:11.429Z,29.7758
2023-04-22T09:50:13.081Z,29.6350
2023-04-22T09:51:14.688Z,29.6581
2023-04-22T09:52:16.395Z,29.6958
2023-04-22T09:53:17.948Z,29.7569
2023-04-22T09:54:19.638Z,29.8065
2023-04-22T09:55:21.291Z,29.8231
2023-04-22T09:56:23.048Z,29.8115
2023-04-22T09:57:24.936Z,29.8765
2023-04-22T09:58:26.214Z,29.7981
2023-04-22T09:59:27.848Z,29.7065
2023-04-22T10:00:29.581Z,29.7627
2023-04-22T10:01:31.242Z,29.7842
2023-04-22T10:02:32.957Z,29.8146
2023-04-22T10:03:34.464Z,29.8612
2023-04-22T10:04:36.164Z,29.9173
2023-04-22T10:05:37.809Z,29.9458
2023-04-22T10:06:39.526Z,29.9419
2023-04-22T10:07:41.128Z,29.9577
2023-04-22T10:08:42.743Z,29.9819
2023-04-22T10:09:44.418Z,29.8742
2023-04-22T10:10:46.015Z,29.8050
2023-04-22T10:11:47.749Z,29.7723
2023-04-22T10:12:49.401Z,29.6908
2023-04-22T10:13:51.024Z,29.5804
2023-04-22T10:14:52.682Z,29.6042
2023-04-22T10:15:54.469Z,29.6704
2023-04-22T10:16:56.098Z,29.7431
2023-04-22T10:17:59.441Z,29.7681
2023-04-22T10:18:59.227Z,29.7165
2023-04-22T10:20:00.868Z,29.6769
2023-04-22T10:21:02.487Z,29.7315
2023-04-22T10:22:04.192Z,29.7550
2023-04-22T10:23:05.848Z,29.7758
2023-04-22T10:24:07.484Z,29.7873
2023-04-22T10:25:09.065Z,29.8108
2023-04-22T10:26:10.763Z,29.8108
2023-04-22T10:27:12.406Z,29.8304
2023-04-22T10:28:14.111Z,29.8388
2023-04-22T10:29:15.749Z,29.8500
2023-04-22T10:30:17.433Z,29.7277
2023-04-22T10:31:19.157Z,29.6638
2023-04-22T10:32:20.714Z,29.6850
2023-04-22T10:33:22.414Z,29.6800
2023-04-22T10:34:23.997Z,29.7231
2023-04-22T10:35:25.651Z,29.7662
2023-04-22T10:36:27.263Z,29.8008
2023-04-22T10:37:28.980Z,29.8562
2023-04-22T10:38:30.890Z,29.8938
2023-04-22T10:39:32.253Z,29.9431
2023-04-22T10:40:33.877Z,29.9412
2023-04-22T10:41:35.545Z,29.8462
2023-04-22T10:42:37.200Z,29.7038
2023-04-22T10:43:38.876Z,29.5677
2023-04-22T10:44:40.494Z,29.6346
2023-04-22T10:46:43.802Z,29.7788
2023-04-22T10:47:45.456Z,29.8358
2023-04-22T10:48:47.142Z,29.9250
2023-04-22T10:49:48.724Z,29.9696
2023-04-22T10:50:50.435Z,29.9892
2023-04-22T10:51:52.047Z,30.0200
2023-04-22T10:52:53.770Z,30.0681
2023-04-22T10:53:55.414Z,30.1527
2023-04-22T10:54:57.000Z,30.2181
2023-04-22T10:55:58.667Z,30.2469
2023-04-22T10:57:00.297Z,30.2473
2023-04-22T10:58:02.382Z,30.2623
2023-04-22T10:59:03.628Z,30.2654
2023-04-22T11:00:05.227Z,30.2862
2023-04-22T11:01:06.826Z,30.2877
2023-04-22T11:02:08.621Z,30.3185
2023-04-22T11:03:10.337Z,30.3669
2023-04-22T11:04:11.893Z,30.4327
2023-04-22T11:05:13.462Z,30.3542
2023-04-22T11:06:15.123Z,30.2646
2023-04-22T11:07:16.755Z,30.3031
2023-04-22T11:08:18.428Z,30.2692
2023-04-22T11:09:20.149Z,30.2719
2023-04-22T11:10:21.703Z,30.2812
2023-04-22T11:11:23.889Z,30.1773
2023-04-22T11:12:25.027Z,30.0562
2023-04-22T11:13:26.751Z,30.0277
2023-04-22T11:14:28.345Z,30.0792
2023-04-22T11:15:30.036Z,30.1465
2023-04-22T11:16:31.696Z,30.2488
2023-04-22T11:17:33.278Z,30.3073
2023-04-22T11:18:35.398Z,30.3712
2023-04-22T11:19:36.702Z,30.4477
2023-04-22T11:20:38.229Z,30.4812
2023-04-22T11:21:39.859Z,30.4846
2023-04-22T11:22:41.564Z,30.4462
2023-04-22T11:23:43.929Z,30.3950
2023-04-22T11:24:44.908Z,30.3462
2023-04-22T11:25:46.498Z,30.2715
2023-04-22T11:26:48.090Z,30.1792
2023-04-22T11:27:49.895Z,30.0085
2023-04-22T11:28:51.478Z,30.0365
2023-04-22T11:29:53.178Z,30.0869
2023-04-22T11:30:54.839Z,30.1458
2023-04-22T11:31:56.460Z,30.2388
2023-04-22T11:32:58.117Z,30.2431
2023-04-22T11:33:59.754Z,30.1819
2023-04-22T11:35:01.389Z,30.1281
2023-04-22T11:36:03.045Z,30.1742
2023-04-22T11:37:04.641Z,30.2046
2023-04-22T11:38:06.264Z,30.1950
2023-04-22T11:39:08.028Z,30.1558
2023-04-22T11:40:28.209Z,30.1554
2023-04-22T11:41:11.265Z,30.1442
2023-04-22T11:42:12.908Z,30.1777
2023-04-22T11:43:14.509Z,30.1477
2023-04-22T11:44:16.241Z,30.1204
2023-04-22T11:45:17.979Z,30.1612
2023-04-22T11:46:21.164Z,30.2304
2023-04-22T11:47:21.188Z,30.2612
2023-04-22T11:48:22.829Z,30.2827
2023-04-22T11:49:24.575Z,30.2519
2023-04-22T11:50:26.198Z,30.2442
2023-04-22T11:51:27.831Z,29.9323
2023-04-22T11:52:29.384Z,29.7162
2023-04-22T11:53:31.114Z,29.6950
2023-04-22T11:54:32.745Z,29.7081
2023-04-22T11:55:34.460Z,29.7212
2023-04-22T11:56:36.047Z,29.7412
2023-04-22T11:57:37.721Z,29.7608
2023-04-22T11:58:39.349Z,29.7877
2023-04-22T11:59:41.324Z,29.7954
2023-04-22T12:00:42.784Z,29.8254
2023-04-22T12:01:44.299Z,29.8392
2023-04-22T12:02:46.133Z,29.8081
2023-04-22T12:03:47.765Z,29.7985
2023-04-22T12:04:49.308Z,29.8138
2023-04-22T12:05:50.942Z,29.8285
2023-04-22T12:06:52.542Z,29.8515
2023-04-22T12:07:54.223Z,29.8512
2023-04-22T12:08:55.840Z,29.8250
2023-04-22T12:09:57.496Z,29.7881
2023-04-22T12:10:59.156Z,29.7992
2023-04-22T12:12:00.868Z,29.8377
2023-04-22T12:13:02.438Z,29.8088
2023-04-22T12:14:04.148Z,29.7692
2023-04-22T12:15:05.758Z,29.7188
2023-04-22T12:16:07.383Z,29.6512
2023-04-22T12:17:09.305Z,29.6288
2023-04-22T12:18:10.663Z,29.5350
2023-04-22T12:19:12.352Z,29.3919
2023-04-22T12:20:14.010Z,29.4554
2023-04-22T12:21:15.624Z,29.5988
2023-04-22T12:22:17.480Z,29.7208
2023-04-22T12:23:19.013Z,29.7800
2023-04-22T12:24:20.601Z,29.7777
2023-04-22T12:25:22.267Z,29.7769
2023-04-22T12:26:26.190Z,29.7838
2023-04-22T12:27:25.565Z,29.8062
2023-04-22T12:28:27.464Z,29.8012
2023-04-22T12:29:29.011Z,29.8088
2023-04-22T12:30:30.459Z,29.8546
2023-04-22T12:31:32.292Z,29.9546
2023-04-22T12:32:34.407Z,30.0104
2023-04-22T12:33:35.497Z,30.0127
2023-04-22T12:34:37.124Z,29.9985
2023-04-22T12:35:38.691Z,29.9715
2023-04-22T12:36:40.461Z,29.9012
2023-04-22T12:37:42.072Z,29.8185
2023-04-22T12:38:43.776Z,29.7273
2023-04-22T12:39:45.511Z,29.5562
2023-04-22T12:40:47.079Z,29.4496
2023-04-22T12:41:48.601Z,29.4481
2023-04-22T12:42:50.318Z,29.4862
2023-04-22T12:43:52.518Z,29.4965
2023-04-22T12:44:53.601Z,29.5108
2023-04-22T12:45:55.546Z,29.5300
2023-04-22T12:46:56.893Z,29.5654
2023-04-22T12:47:58.569Z,29.6027
2023-04-22T12:49:00.262Z,29.6412
2023-04-22T12:50:01.907Z,29.6827
2023-04-22T12:51:03.579Z,29.7100
2023-04-22T12:52:05.231Z,29.6535
2023-04-22T12:53:07.475Z,29.5423
2023-04-22T12:54:08.421Z,29.4142
2023-04-22T12:55:10.167Z,29.3058
2023-04-22T12:56:11.827Z,29.2800
2023-04-22T12:57:13.409Z,29.3177
2023-04-22T12:58:15.124Z,29.3769
2023-04-22T12:59:16.742Z,29.4423
2023-04-22T13:00:18.374Z,29.5115
2023-04-22T13:01:20.113Z,29.6027
2023-04-22T13:02:21.761Z,29.7104
2023-04-22T13:03:23.436Z,29.7623
2023-04-22T13:04:25.034Z,29.7912
2023-04-22T13:05:26.738Z,29.8146
2023-04-22T13:06:28.282Z,29.7915
2023-04-22T13:07:29.921Z,29.7923
2023-04-22T13:08:31.529Z,29.7615
2023-04-22T13:09:33.283Z,29.6131
2023-04-22T13:10:35.598Z,29.5350
2023-04-22T13:11:36.538Z,29.6227
2023-04-22T13:12:38.653Z,29.7750
2023-04-22T13:13:39.853Z,29.9250
2023-04-22T13:14:41.601Z,30.0942
2023-04-22T13:15:43.103Z,30.2254
2023-04-22T13:16:44.878Z,30.2773
2023-04-22T13:17:48.051Z,30.3192
2023-04-22T13:18:48.985Z,30.3588
2023-04-22T13:19:49.704Z,30.2446